sensor_id;sensor_type;location;lat;lon;timestamp;temperature;humidity
52889;DHT22;41413;52.770;6.892;2022-10-28T00:01:08;15.70;99.90
52889;DHT22;41413;52.770;6.892;2022-10-28T00:03:40;15.70;99.90
52889;DHT22;41413;52.770;6.892;2022-10-28T00:06:16;15.70;99.90
52889;DHT22;41413;52.770;6.892;2022-10-28T00:08:43;15.60;99.90
52889;DHT22;41413;52.770;6.892;2022-10-28T00:13:42;15.40;99.90
52889;DHT22;41413;52.770;6.892;2022-10-28T00:16:13;15.30;99.90
52889;DHT22;41413;52.770;6.892;2022-10-28T00:18:41;15.30;99.90
52889;DHT22;41413;52.770;6.892;2022-10-28T00:21:15;15.30;99.90
52889;DHT22;41413;52.770;6.892;2022-10-28T00:23:42;15.30;99.90
52889;DHT22;41413;52.770;6.892;2022-10-28T00:26:14;15.20;99.90
52889;DHT22;41413;52.770;6.892;2022-10-28T00:28:42;15.10;99.90
52889;DHT22;41413;52.770;6.892;2022-10-28T00:31:11;15.20;99.90
52889;DHT22;41413;52.770;6.892;2022-10-28T00:33:38;15.30;99.90
52889;DHT22;41413;52.770;6.892;2022-10-28T00:36:20;15.30;99.90
52889;DHT22;41413;52.770;6.892;2022-10-28T00:38:48;15.30;99.90
52889;DHT22;41413;52.770;6.892;2022-10-28T00:43:58;15.40;99.90
52889;DHT22;41413;52.770;6.892;2022-10-28T00:46:35;15.40;99.90
52889;DHT22;41413;52.770;6.892;2022-10-28T00:49:14;15.40;99.90
52889;DHT22;41413;52.770;6.892;2022-10-28T00:51:43;15.50;99.90
52889;DHT22;41413;52.770;6.892;2022-10-28T00:54:12;15.40;99.90
52889;DHT22;41413;52.770;6.892;2022-10-28T00:56:43;15.50;99.90
52889;DHT22;41413;52.770;6.892;2022-10-28T00:59:18;15.50;99.90
52889;DHT22;41413;52.770;6.892;2022-10-28T01:01:46;15.60;99.90
52889;DHT22;41413;52.770;6.892;2022-10-28T01:04:13;15.60;99.90
52889;DHT22;41413;52.770;6.892;2022-10-28T01:06:40;15.50;99.90
52889;DHT22;41413;52.770;6.892;2022-10-28T01:09:07;15.50;99.90
52889;DHT22;41413;52.770;6.892;2022-10-28T01:11:55;15.40;99.90
52889;DHT22;41413;52.770;6.892;2022-10-28T01:15:03;15.50;99.90
52889;DHT22;41413;52.770;6.892;2022-10-28T01:17:53;15.50;99.90
52889;DHT22;41413;52.770;6.892;2022-10-28T01:20:41;15.50;99.90
52889;DHT22;41413;52.770;6.892;2022-10-28T01:26:39;15.40;99.90
52889;DHT22;41413;52.770;6.892;2022-10-28T01:29:23;15.40;99.90
52889;DHT22;41413;52.770;6.892;2022-10-28T01:37:33;15.40;99.90
52889;DHT22;41413;52.770;6.892;2022-10-28T01:43:07;15.40;99.90
52889;DHT22;41413;52.770;6.892;2022-10-28T01:46:08;15.30;99.90
52889;DHT22;41413;52.770;6.892;2022-10-28T01:48:44;15.30;99.90
52889;DHT22;41413;52.770;6.892;2022-10-28T01:51:25;15.30;99.90
52889;DHT22;41413;52.770;6.892;2022-10-28T01:53:56;15.30;99.90
52889;DHT22;41413;52.770;6.892;2022-10-28T01:56:27;15.30;99.90
52889;DHT22;41413;52.770;6.892;2022-10-28T01:58:58;15.30;99.90
52889;DHT22;41413;52.770;6.892;2022-10-28T02:01:27;15.20;99.90
52889;DHT22;41413;52.770;6.892;2022-10-28T02:03:56;15.20;99.90
52889;DHT22;41413;52.770;6.892;2022-10-28T02:06:25;15.20;99.90
52889;DHT22;41413;52.770;6.892;2022-10-28T02:09:08;15.00;99.90
52889;DHT22;41413;52.770;6.892;2022-10-28T02:14:49;15.00;99.90
52889;DHT22;41413;52.770;6.892;2022-10-28T02:17:23;15.00;99.90
52889;DHT22;41413;52.770;6.892;2022-10-28T02:22:59;15.00;99.90
52889;DHT22;41413;52.770;6.892;2022-10-28T02:25:50;15.00;99.90
52889;DHT22;41413;52.770;6.892;2022-10-28T02:28:44;15.10;99.90
52889;DHT22;41413;52.770;6.892;2022-10-28T02:31:29;15.10;99.90
52889;DHT22;41413;52.770;6.892;2022-10-28T02:34:01;15.10;99.90
52889;DHT22;41413;52.770;6.892;2022-10-28T02:36:33;15.10;99.90
52889;DHT22;41413;52.770;6.892;2022-10-28T02:39:03;15.10;99.90
52889;DHT22;41413;52.770;6.892;2022-10-28T02:44:12;15.00;99.90
52889;DHT22;41413;52.770;6.892;2022-10-28T02:46:42;15.00;99.90
52889;DHT22;41413;52.770;6.892;2022-10-28T02:49:12;15.00;99.90
52889;DHT22;41413;52.770;6.892;2022-10-28T02:51:56;14.90;99.90
52889;DHT22;41413;52.770;6.892;2022-10-28T02:54:39;14.90;99.90
52889;DHT22;41413;52.770;6.892;2022-10-28T02:57:21;14.90;99.90
52889;DHT22;41413;52.770;6.892;2022-10-28T03:00:13;14.90;99.90
52889;DHT22;41413;52.770;6.892;2022-10-28T03:02:41;14.80;99.90
52889;DHT22;41413;52.770;6.892;2022-10-28T03:05:08;14.70;99.90
52889;DHT22;41413;52.770;6.892;2022-10-28T03:07:34;14.70;99.90
52889;DHT22;41413;52.770;6.892;2022-10-28T03:10:01;14.70;99.90
52889;DHT22;41413;52.770;6.892;2022-10-28T03:12:28;14.60;99.90
52889;DHT22;41413;52.770;6.892;2022-10-28T03:14:54;14.70;99.90
52889;DHT22;41413;52.770;6.892;2022-10-28T03:17:21;14.60;99.90
52889;DHT22;41413;52.770;6.892;2022-10-28T03:19:48;14.60;99.90
52889;DHT22;41413;52.770;6.892;2022-10-28T03:22:15;14.60;99.90
52889;DHT22;41413;52.770;6.892;2022-10-28T03:24:41;14.50;99.90
52889;DHT22;41413;52.770;6.892;2022-10-28T03:27:08;14.50;99.90
52889;DHT22;41413;52.770;6.892;2022-10-28T03:29:34;14.50;99.90
52889;DHT22;41413;52.770;6.892;2022-10-28T03:32:01;14.50;99.90
52889;DHT22;41413;52.770;6.892;2022-10-28T03:34:28;14.40;99.90
52889;DHT22;41413;52.770;6.892;2022-10-28T03:36:54;14.40;99.90
52889;DHT22;41413;52.770;6.892;2022-10-28T03:39:21;14.40;99.90
52889;DHT22;41413;52.770;6.892;2022-10-28T03:41:48;14.30;99.90
52889;DHT22;41413;52.770;6.892;2022-10-28T03:44:14;14.30;99.90
52889;DHT22;41413;52.770;6.892;2022-10-28T03:46:41;14.20;99.90
52889;DHT22;41413;52.770;6.892;2022-10-28T03:49:07;14.20;99.90
52889;DHT22;41413;52.770;6.892;2022-10-28T03:51:34;14.10;99.90
52889;DHT22;41413;52.770;6.892;2022-10-28T03:54:01;14.10;99.90
52889;DHT22;41413;52.770;6.892;2022-10-28T03:56:27;14.10;99.90
52889;DHT22;41413;52.770;6.892;2022-10-28T03:58:54;14.10;99.90
52889;DHT22;41413;52.770;6.892;2022-10-28T04:01:21;14.10;99.90
52889;DHT22;41413;52.770;6.892;2022-10-28T04:03:47;14.10;99.90
52889;DHT22;41413;52.770;6.892;2022-10-28T04:06:14;14.00;99.90
52889;DHT22;41413;52.770;6.892;2022-10-28T04:08:42;14.00;99.90
52889;DHT22;41413;52.770;6.892;2022-10-28T04:11:08;14.00;99.90
52889;DHT22;41413;52.770;6.892;2022-10-28T04:13:35;14.10;99.90
52889;DHT22;41413;52.770;6.892;2022-10-28T04:16:02;14.10;99.90
52889;DHT22;41413;52.770;6.892;2022-10-28T04:18:28;14.10;99.90
52889;DHT22;41413;52.770;6.892;2022-10-28T04:20:55;14.10;99.90
52889;DHT22;41413;52.770;6.892;2022-10-28T04:23:22;14.10;99.90
52889;DHT22;41413;52.770;6.892;2022-10-28T04:25:54;14.10;99.90
52889;DHT22;41413;52.770;6.892;2022-10-28T04:28:21;14.10;99.90
52889;DHT22;41413;52.770;6.892;2022-10-28T04:30:51;14.10;99.90
52889;DHT22;41413;52.770;6.892;2022-10-28T04:33:18;14.10;99.90
52889;DHT22;41413;52.770;6.892;2022-10-28T04:35:44;14.00;99.90
52889;DHT22;41413;52.770;6.892;2022-10-28T04:38:13;14.10;99.90
52889;DHT22;41413;52.770;6.892;2022-10-28T04:40:40;14.10;99.90
52889;DHT22;41413;52.770;6.892;2022-10-28T04:43:07;14.10;99.90
52889;DHT22;41413;52.770;6.892;2022-10-28T04:45:36;14.10;99.90
52889;DHT22;41413;52.770;6.892;2022-10-28T04:48:03;14.10;99.90
52889;DHT22;41413;52.770;6.892;2022-10-28T04:50:30;14.10;99.90
52889;DHT22;41413;52.770;6.892;2022-10-28T04:52:56;14.10;99.90
52889;DHT22;41413;52.770;6.892;2022-10-28T04:55:23;14.00;99.90
52889;DHT22;41413;52.770;6.892;2022-10-28T04:57:54;14.00;99.90
52889;DHT22;41413;52.770;6.892;2022-10-28T05:00:22;14.00;99.90
52889;DHT22;41413;52.770;6.892;2022-10-28T05:02:49;14.10;99.90
52889;DHT22;41413;52.770;6.892;2022-10-28T05:05:16;14.10;99.90
52889;DHT22;41413;52.770;6.892;2022-10-28T05:07:48;14.10;99.90
52889;DHT22;41413;52.770;6.892;2022-10-28T05:10:14;14.10;99.90
52889;DHT22;41413;52.770;6.892;2022-10-28T05:12:44;14.10;99.90
52889;DHT22;41413;52.770;6.892;2022-10-28T05:15:12;14.10;99.90
52889;DHT22;41413;52.770;6.892;2022-10-28T05:17:40;14.00;99.90
52889;DHT22;41413;52.770;6.892;2022-10-28T05:20:07;14.00;99.90
52889;DHT22;41413;52.770;6.892;2022-10-28T05:22:34;14.00;99.90
52889;DHT22;41413;52.770;6.892;2022-10-28T05:25:00;13.90;99.90
52889;DHT22;41413;52.770;6.892;2022-10-28T05:27:27;13.90;99.90
52889;DHT22;41413;52.770;6.892;2022-10-28T05:29:54;13.80;99.90
52889;DHT22;41413;52.770;6.892;2022-10-28T05:32:20;13.80;99.90
52889;DHT22;41413;52.770;6.892;2022-10-28T05:34:47;13.80;99.90
52889;DHT22;41413;52.770;6.892;2022-10-28T05:37:14;13.80;99.90
52889;DHT22;41413;52.770;6.892;2022-10-28T05:39:40;13.80;99.90
52889;DHT22;41413;52.770;6.892;2022-10-28T05:42:07;13.70;99.90
52889;DHT22;41413;52.770;6.892;2022-10-28T05:44:33;13.70;99.90
52889;DHT22;41413;52.770;6.892;2022-10-28T05:47:00;13.60;99.90
52889;DHT22;41413;52.770;6.892;2022-10-28T05:49:27;13.60;99.90
52889;DHT22;41413;52.770;6.892;2022-10-28T05:51:53;13.60;99.90
52889;DHT22;41413;52.770;6.892;2022-10-28T05:54:20;13.50;99.90
52889;DHT22;41413;52.770;6.892;2022-10-28T05:56:46;13.50;99.90
52889;DHT22;41413;52.770;6.892;2022-10-28T05:59:13;13.50;99.90
52889;DHT22;41413;52.770;6.892;2022-10-28T06:01:40;13.50;99.90
52889;DHT22;41413;52.770;6.892;2022-10-28T06:04:06;13.40;99.90
52889;DHT22;41413;52.770;6.892;2022-10-28T06:06:33;13.40;99.90
52889;DHT22;41413;52.770;6.892;2022-10-28T06:09:00;13.40;99.90
52889;DHT22;41413;52.770;6.892;2022-10-28T06:11:27;13.40;99.90
52889;DHT22;41413;52.770;6.892;2022-10-28T06:13:53;13.40;99.90
52889;DHT22;41413;52.770;6.892;2022-10-28T06:16:20;13.40;99.90
52889;DHT22;41413;52.770;6.892;2022-10-28T06:18:47;13.40;99.90
52889;DHT22;41413;52.770;6.892;2022-10-28T06:21:14;13.40;99.90
52889;DHT22;41413;52.770;6.892;2022-10-28T06:23:40;13.50;99.90
52889;DHT22;41413;52.770;6.892;2022-10-28T06:26:08;13.50;99.90
52889;DHT22;41413;52.770;6.892;2022-10-28T06:28:35;13.50;99.90
52889;DHT22;41413;52.770;6.892;2022-10-28T06:31:03;13.50;99.90
52889;DHT22;41413;52.770;6.892;2022-10-28T06:33:31;13.50;99.90
52889;DHT22;41413;52.770;6.892;2022-10-28T06:35:59;13.60;99.90
52889;DHT22;41413;52.770;6.892;2022-10-28T06:38:27;13.50;99.90
52889;DHT22;41413;52.770;6.892;2022-10-28T06:40:56;13.60;99.90
52889;DHT22;41413;52.770;6.892;2022-10-28T06:43:25;13.60;99.90
52889;DHT22;41413;52.770;6.892;2022-10-28T06:45:51;13.60;99.90
52889;DHT22;41413;52.770;6.892;2022-10-28T06:48:22;13.80;99.90
52889;DHT22;41413;52.770;6.892;2022-10-28T06:50:49;13.70;99.90
52889;DHT22;41413;52.770;6.892;2022-10-28T06:53:15;13.70;99.90
52889;DHT22;41413;52.770;6.892;2022-10-28T06:55:42;13.80;99.90
52889;DHT22;41413;52.770;6.892;2022-10-28T06:58:14;13.80;99.90
52889;DHT22;41413;52.770;6.892;2022-10-28T07:00:40;13.80;99.90
52889;DHT22;41413;52.770;6.892;2022-10-28T07:03:08;13.80;99.90
52889;DHT22;41413;52.770;6.892;2022-10-28T07:05:35;13.90;99.90
52889;DHT22;41413;52.770;6.892;2022-10-28T07:08:02;14.00;99.90
52889;DHT22;41413;52.770;6.892;2022-10-28T07:10:29;14.10;99.90
52889;DHT22;41413;52.770;6.892;2022-10-28T07:12:55;14.10;99.90
52889;DHT22;41413;52.770;6.892;2022-10-28T07:15:23;14.20;99.90
52889;DHT22;41413;52.770;6.892;2022-10-28T07:17:56;14.20;99.90
52889;DHT22;41413;52.770;6.892;2022-10-28T07:20:24;14.30;99.90
52889;DHT22;41413;52.770;6.892;2022-10-28T07:22:59;14.50;99.90
52889;DHT22;41413;52.770;6.892;2022-10-28T07:25:27;14.50;99.90
52889;DHT22;41413;52.770;6.892;2022-10-28T07:27:55;14.70;99.90
52889;DHT22;41413;52.770;6.892;2022-10-28T07:30:23;14.80;99.90
52889;DHT22;41413;52.770;6.892;2022-10-28T07:32:49;14.90;99.90
52889;DHT22;41413;52.770;6.892;2022-10-28T07:35:16;15.00;99.90
52889;DHT22;41413;52.770;6.892;2022-10-28T07:37:43;15.30;99.90
52889;DHT22;41413;52.770;6.892;2022-10-28T07:40:10;15.40;99.90
52889;DHT22;41413;52.770;6.892;2022-10-28T07:42:37;15.50;99.90
52889;DHT22;41413;52.770;6.892;2022-10-28T07:45:04;15.70;99.90
52889;DHT22;41413;52.770;6.892;2022-10-28T07:47:31;15.90;99.90
52889;DHT22;41413;52.770;6.892;2022-10-28T07:49:57;16.60;99.90
52889;DHT22;41413;52.770;6.892;2022-10-28T07:52:24;17.20;99.90
52889;DHT22;41413;52.770;6.892;2022-10-28T07:54:51;17.80;99.90
52889;DHT22;41413;52.770;6.892;2022-10-28T07:57:18;18.30;99.90
52889;DHT22;41413;52.770;6.892;2022-10-28T07:59:44;18.70;99.90
52889;DHT22;41413;52.770;6.892;2022-10-28T08:02:19;19.20;99.90
52889;DHT22;41413;52.770;6.892;2022-10-28T08:04:46;19.50;99.90
52889;DHT22;41413;52.770;6.892;2022-10-28T08:07:13;19.90;99.90
52889;DHT22;41413;52.770;6.892;2022-10-28T08:09:40;20.00;99.90
52889;DHT22;41413;52.770;6.892;2022-10-28T08:12:08;20.20;99.90
52889;DHT22;41413;52.770;6.892;2022-10-28T08:14:34;20.40;99.90
52889;DHT22;41413;52.770;6.892;2022-10-28T08:17:01;20.50;99.90
52889;DHT22;41413;52.770;6.892;2022-10-28T08:19:28;20.70;99.90
52889;DHT22;41413;52.770;6.892;2022-10-28T08:21:55;20.50;99.90
52889;DHT22;41413;52.770;6.892;2022-10-28T08:24:22;20.40;99.90
52889;DHT22;41413;52.770;6.892;2022-10-28T08:26:48;20.70;99.90
52889;DHT22;41413;52.770;6.892;2022-10-28T08:29:15;21.10;99.90
52889;DHT22;41413;52.770;6.892;2022-10-28T08:31:42;21.40;99.90
52889;DHT22;41413;52.770;6.892;2022-10-28T08:34:09;21.60;99.90
52889;DHT22;41413;52.770;6.892;2022-10-28T08:36:36;21.60;99.90
52889;DHT22;41413;52.770;6.892;2022-10-28T08:39:03;21.60;99.90
52889;DHT22;41413;52.770;6.892;2022-10-28T08:44:47;21.50;99.90
52889;DHT22;41413;52.770;6.892;2022-10-28T08:50:14;21.20;99.90
52889;DHT22;41413;52.770;6.892;2022-10-28T08:52:55;21.00;99.90
52889;DHT22;41413;52.770;6.892;2022-10-28T08:58:06;20.70;99.90
52889;DHT22;41413;52.770;6.892;2022-10-28T09:00:35;20.80;99.90
52889;DHT22;41413;52.770;6.892;2022-10-28T09:05:39;20.60;99.90
52889;DHT22;41413;52.770;6.892;2022-10-28T09:08:21;20.90;99.90
52889;DHT22;41413;52.770;6.892;2022-10-28T09:11:14;20.90;99.90
52889;DHT22;41413;52.770;6.892;2022-10-28T09:16:46;21.50;99.90
52889;DHT22;41413;52.770;6.892;2022-10-28T09:24:51;22.00;99.90
52889;DHT22;41413;52.770;6.892;2022-10-28T09:27:30;21.80;99.90
52889;DHT22;41413;52.770;6.892;2022-10-28T09:35:28;21.00;99.90
52889;DHT22;41413;52.770;6.892;2022-10-28T09:38:05;20.90;99.90
52889;DHT22;41413;52.770;6.892;2022-10-28T09:40:34;20.70;99.90
52889;DHT22;41413;52.770;6.892;2022-10-28T09:43:05;20.60;99.90
52889;DHT22;41413;52.770;6.892;2022-10-28T09:45:36;20.40;99.90
52889;DHT22;41413;52.770;6.892;2022-10-28T09:48:13;20.20;99.90
52889;DHT22;41413;52.770;6.892;2022-10-28T09:50:42;20.00;99.90
52889;DHT22;41413;52.770;6.892;2022-10-28T09:53:34;20.00;99.90
52889;DHT22;41413;52.770;6.892;2022-10-28T09:56:04;20.10;99.90
52889;DHT22;41413;52.770;6.892;2022-10-28T09:58:33;20.10;99.90
52889;DHT22;41413;52.770;6.892;2022-10-28T10:01:02;20.00;99.90
52889;DHT22;41413;52.770;6.892;2022-10-28T10:03:29;19.90;99.90
52889;DHT22;41413;52.770;6.892;2022-10-28T10:06:08;19.80;99.90
52889;DHT22;41413;52.770;6.892;2022-10-28T10:08:39;19.80;99.90
52889;DHT22;41413;52.770;6.892;2022-10-28T10:11:13;19.80;99.90
52889;DHT22;41413;52.770;6.892;2022-10-28T10:13:44;19.90;99.90
52889;DHT22;41413;52.770;6.892;2022-10-28T10:16:18;19.70;99.90
52889;DHT22;41413;52.770;6.892;2022-10-28T10:18:50;19.90;99.90
52889;DHT22;41413;52.770;6.892;2022-10-28T10:21:45;19.80;99.90
52889;DHT22;41413;52.770;6.892;2022-10-28T10:24:29;19.80;99.90
52889;DHT22;41413;52.770;6.892;2022-10-28T10:27:17;19.80;99.90
52889;DHT22;41413;52.770;6.892;2022-10-28T10:29:50;19.80;99.90
52889;DHT22;41413;52.770;6.892;2022-10-28T10:32:27;19.80;99.90
52889;DHT22;41413;52.770;6.892;2022-10-28T10:35:29;19.90;99.90
52889;DHT22;41413;52.770;6.892;2022-10-28T10:37:58;20.00;99.90
52889;DHT22;41413;52.770;6.892;2022-10-28T10:40:32;20.20;99.90
52889;DHT22;41413;52.770;6.892;2022-10-28T10:48:32;21.00;99.90
52889;DHT22;41413;52.770;6.892;2022-10-28T10:51:22;21.00;99.90
52889;DHT22;41413;52.770;6.892;2022-10-28T10:53:52;21.20;99.90
52889;DHT22;41413;52.770;6.892;2022-10-28T10:56:26;21.00;99.90
52889;DHT22;41413;52.770;6.892;2022-10-28T10:58:56;20.80;99.90
52889;DHT22;41413;52.770;6.892;2022-10-28T11:01:28;20.70;99.90
52889;DHT22;41413;52.770;6.892;2022-10-28T11:04:02;20.60;99.90
52889;DHT22;41413;52.770;6.892;2022-10-28T11:06:33;20.50;99.90
52889;DHT22;41413;52.770;6.892;2022-10-28T11:09:11;20.50;99.90
52889;DHT22;41413;52.770;6.892;2022-10-28T11:11:43;20.40;99.90
52889;DHT22;41413;52.770;6.892;2022-10-28T11:16:51;20.50;99.90
52889;DHT22;41413;52.770;6.892;2022-10-28T11:19:30;20.50;99.90
52889;DHT22;41413;52.770;6.892;2022-10-28T11:22:10;20.50;99.90
52889;DHT22;41413;52.770;6.892;2022-10-28T11:30:39;20.80;99.90
52889;DHT22;41413;52.770;6.892;2022-10-28T11:33:29;20.90;99.90
52889;DHT22;41413;52.770;6.892;2022-10-28T11:41:27;21.10;99.90
52889;DHT22;41413;52.770;6.892;2022-10-28T11:43:57;21.10;99.90
52889;DHT22;41413;52.770;6.892;2022-10-28T11:46:40;21.10;99.90
52889;DHT22;41413;52.770;6.892;2022-10-28T11:57:50;21.20;99.90
52889;DHT22;41413;52.770;6.892;2022-10-28T12:03:26;21.30;99.90
52889;DHT22;41413;52.770;6.892;2022-10-28T12:06:31;21.40;99.90
52889;DHT22;41413;52.770;6.892;2022-10-28T12:09:13;21.40;99.90
52889;DHT22;41413;52.770;6.892;2022-10-28T12:17:17;21.40;99.90
52889;DHT22;41413;52.770;6.892;2022-10-28T12:19:52;21.50;99.90
52889;DHT22;41413;52.770;6.892;2022-10-28T12:22:31;21.40;99.90
52889;DHT22;41413;52.770;6.892;2022-10-28T12:25:04;21.40;99.90
52889;DHT22;41413;52.770;6.892;2022-10-28T12:27:36;21.40;99.90
52889;DHT22;41413;52.770;6.892;2022-10-28T12:30:18;21.40;99.90
52889;DHT22;41413;52.770;6.892;2022-10-28T12:32:50;21.40;99.90
52889;DHT22;41413;52.770;6.892;2022-10-28T12:37:57;21.50;99.90
52889;DHT22;41413;52.770;6.892;2022-10-28T12:40:33;21.50;99.90
52889;DHT22;41413;52.770;6.892;2022-10-28T12:43:20;21.50;99.90
52889;DHT22;41413;52.770;6.892;2022-10-28T12:45:52;21.50;99.90
52889;DHT22;41413;52.770;6.892;2022-10-28T12:51:20;21.40;99.90
52889;DHT22;41413;52.770;6.892;2022-10-28T12:53:57;21.50;99.90
52889;DHT22;41413;52.770;6.892;2022-10-28T12:56:36;21.50;99.90
52889;DHT22;41413;52.770;6.892;2022-10-28T12:59:21;21.50;99.90
52889;DHT22;41413;52.770;6.892;2022-10-28T13:01:50;21.50;99.90
52889;DHT22;41413;52.770;6.892;2022-10-28T13:04:17;21.40;99.90
52889;DHT22;41413;52.770;6.892;2022-10-28T13:06:53;21.30;99.90
52889;DHT22;41413;52.770;6.892;2022-10-28T13:15:55;21.30;99.90
52889;DHT22;41413;52.770;6.892;2022-10-28T13:21:21;21.20;99.90
52889;DHT22;41413;52.770;6.892;2022-10-28T13:23:58;21.20;99.90
52889;DHT22;41413;52.770;6.892;2022-10-28T13:26:30;21.20;99.90
52889;DHT22;41413;52.770;6.892;2022-10-28T13:29:03;21.20;99.90
52889;DHT22;41413;52.770;6.892;2022-10-28T13:31:58;21.20;99.90
52889;DHT22;41413;52.770;6.892;2022-10-28T13:34:32;21.20;99.90
52889;DHT22;41413;52.770;6.892;2022-10-28T13:37:01;21.20;99.90
52889;DHT22;41413;52.770;6.892;2022-10-28T13:44:58;21.30;99.90
52889;DHT22;41413;52.770;6.892;2022-10-28T13:47:35;21.30;99.90
52889;DHT22;41413;52.770;6.892;2022-10-28T13:52:37;21.30;99.90
52889;DHT22;41413;52.770;6.892;2022-10-28T13:57:45;21.30;99.90
52889;DHT22;41413;52.770;6.892;2022-10-28T14:02:57;21.10;99.90
52889;DHT22;41413;52.770;6.892;2022-10-28T14:08:07;21.00;99.90
52889;DHT22;41413;52.770;6.892;2022-10-28T14:10:37;21.00;99.90
52889;DHT22;41413;52.770;6.892;2022-10-28T14:13:15;20.90;99.90
52889;DHT22;41413;52.770;6.892;2022-10-28T14:15:43;20.90;99.90
52889;DHT22;41413;52.770;6.892;2022-10-28T14:21:00;20.80;99.90
52889;DHT22;41413;52.770;6.892;2022-10-28T14:49:39;20.30;99.90
52889;DHT22;41413;52.770;6.892;2022-10-28T14:52:14;20.30;99.90
52889;DHT22;41413;52.770;6.892;2022-10-28T14:54:51;20.20;99.90
52889;DHT22;41413;52.770;6.892;2022-10-28T14:57:18;20.20;99.90
52889;DHT22;41413;52.770;6.892;2022-10-28T14:59:49;20.20;99.90
52889;DHT22;41413;52.770;6.892;2022-10-28T15:02:29;20.20;99.90
52889;DHT22;41413;52.770;6.892;2022-10-28T15:07:35;20.10;99.90
52889;DHT22;41413;52.770;6.892;2022-10-28T15:10:27;20.00;99.90
52889;DHT22;41413;52.770;6.892;2022-10-28T15:12:56;20.00;99.90
52889;DHT22;41413;52.770;6.892;2022-10-28T15:15:26;20.00;99.90
52889;DHT22;41413;52.770;6.892;2022-10-28T15:17:53;19.90;99.90
52889;DHT22;41413;52.770;6.892;2022-10-28T15:20:31;20.00;99.90
52889;DHT22;41413;52.770;6.892;2022-10-28T15:23:22;19.90;99.90
52889;DHT22;41413;52.770;6.892;2022-10-28T15:26:24;19.90;99.90
52889;DHT22;41413;52.770;6.892;2022-10-28T15:28:51;19.90;99.90
52889;DHT22;41413;52.770;6.892;2022-10-28T15:31:18;19.80;99.90
52889;DHT22;41413;52.770;6.892;2022-10-28T15:33:44;19.80;99.90
52889;DHT22;41413;52.770;6.892;2022-10-28T15:36:15;19.80;99.90
52889;DHT22;41413;52.770;6.892;2022-10-28T15:38:44;19.70;99.90
52889;DHT22;41413;52.770;6.892;2022-10-28T15:44:00;19.60;99.90
52889;DHT22;41413;52.770;6.892;2022-10-28T15:46:27;19.60;99.90
52889;DHT22;41413;52.770;6.892;2022-10-28T15:48:58;19.60;99.90
52889;DHT22;41413;52.770;6.892;2022-10-28T15:51:25;19.50;99.90
52889;DHT22;41413;52.770;6.892;2022-10-28T15:53:53;19.50;99.90
52889;DHT22;41413;52.770;6.892;2022-10-28T15:56:24;19.30;99.90
52889;DHT22;41413;52.770;6.892;2022-10-28T15:59:20;19.40;99.90
52889;DHT22;41413;52.770;6.892;2022-10-28T16:01:47;19.40;99.90
52889;DHT22;41413;52.770;6.892;2022-10-28T16:06:44;19.30;99.90
52889;DHT22;41413;52.770;6.892;2022-10-28T16:09:15;19.30;99.90
52889;DHT22;41413;52.770;6.892;2022-10-28T16:11:46;19.20;99.90
52889;DHT22;41413;52.770;6.892;2022-10-28T16:14:33;19.20;99.90
52889;DHT22;41413;52.770;6.892;2022-10-28T16:17:19;19.10;99.90
52889;DHT22;41413;52.770;6.892;2022-10-28T16:20:16;19.10;99.90
52889;DHT22;41413;52.770;6.892;2022-10-28T16:22:44;19.00;99.90
52889;DHT22;41413;52.770;6.892;2022-10-28T16:25:13;19.00;99.90
52889;DHT22;41413;52.770;6.892;2022-10-28T16:27:41;18.90;99.90
52889;DHT22;41413;52.770;6.892;2022-10-28T16:30:09;18.90;99.90
52889;DHT22;41413;52.770;6.892;2022-10-28T16:32:44;18.90;99.90
52889;DHT22;41413;52.770;6.892;2022-10-28T16:35:17;18.90;99.90
52889;DHT22;41413;52.770;6.892;2022-10-28T16:37:44;18.80;99.90
52889;DHT22;41413;52.770;6.892;2022-10-28T16:40:15;18.70;99.90
52889;DHT22;41413;52.770;6.892;2022-10-28T16:43:02;18.80;99.90
52889;DHT22;41413;52.770;6.892;2022-10-28T16:45:29;18.70;99.90
52889;DHT22;41413;52.770;6.892;2022-10-28T16:47:55;18.70;99.90
52889;DHT22;41413;52.770;6.892;2022-10-28T16:50:22;18.60;99.90
52889;DHT22;41413;52.770;6.892;2022-10-28T16:52:49;18.60;99.90
52889;DHT22;41413;52.770;6.892;2022-10-28T16:55:16;18.50;99.90
52889;DHT22;41413;52.770;6.892;2022-10-28T16:57:43;18.50;99.90
52889;DHT22;41413;52.770;6.892;2022-10-28T17:00:12;18.60;99.90
52889;DHT22;41413;52.770;6.892;2022-10-28T17:02:39;18.50;99.90
52889;DHT22;41413;52.770;6.892;2022-10-28T17:05:27;18.50;99.90
52889;DHT22;41413;52.770;6.892;2022-10-28T17:07:54;18.50;99.90
52889;DHT22;41413;52.770;6.892;2022-10-28T17:10:22;18.50;99.90
52889;DHT22;41413;52.770;6.892;2022-10-28T17:12:49;18.50;99.90
52889;DHT22;41413;52.770;6.892;2022-10-28T17:15:16;18.40;99.90
52889;DHT22;41413;52.770;6.892;2022-10-28T17:17:43;18.40;99.90
52889;DHT22;41413;52.770;6.892;2022-10-28T17:20:10;18.40;99.90
52889;DHT22;41413;52.770;6.892;2022-10-28T17:22:38;18.40;99.90
52889;DHT22;41413;52.770;6.892;2022-10-28T17:25:06;18.40;99.90
52889;DHT22;41413;52.770;6.892;2022-10-28T17:27:33;18.30;99.90
52889;DHT22;41413;52.770;6.892;2022-10-28T17:30:00;18.30;99.90
52889;DHT22;41413;52.770;6.892;2022-10-28T17:32:27;18.40;99.90
52889;DHT22;41413;52.770;6.892;2022-10-28T17:34:53;18.20;99.90
52889;DHT22;41413;52.770;6.892;2022-10-28T17:37:20;18.30;99.90
52889;DHT22;41413;52.770;6.892;2022-10-28T17:39:46;18.10;99.90
52889;DHT22;41413;52.770;6.892;2022-10-28T17:42:13;18.10;99.90
52889;DHT22;41413;52.770;6.892;2022-10-28T17:44:40;18.10;99.90
52889;DHT22;41413;52.770;6.892;2022-10-28T17:47:06;18.10;99.90
52889;DHT22;41413;52.770;6.892;2022-10-28T17:49:33;18.00;99.90
52889;DHT22;41413;52.770;6.892;2022-10-28T17:52:01;18.00;99.90
52889;DHT22;41413;52.770;6.892;2022-10-28T17:54:28;18.00;99.90
52889;DHT22;41413;52.770;6.892;2022-10-28T17:56:55;18.00;99.90
52889;DHT22;41413;52.770;6.892;2022-10-28T17:59:22;18.00;99.90
52889;DHT22;41413;52.770;6.892;2022-10-28T18:01:48;17.90;99.90
52889;DHT22;41413;52.770;6.892;2022-10-28T18:04:16;17.90;99.90
52889;DHT22;41413;52.770;6.892;2022-10-28T18:06:42;17.80;99.90
52889;DHT22;41413;52.770;6.892;2022-10-28T18:09:10;17.80;99.90
52889;DHT22;41413;52.770;6.892;2022-10-28T18:11:37;17.80;99.90
52889;DHT22;41413;52.770;6.892;2022-10-28T18:14:05;17.80;99.90
52889;DHT22;41413;52.770;6.892;2022-10-28T18:16:32;17.70;99.90
52889;DHT22;41413;52.770;6.892;2022-10-28T18:19:03;17.70;99.90
52889;DHT22;41413;52.770;6.892;2022-10-28T18:21:30;17.70;99.90
52889;DHT22;41413;52.770;6.892;2022-10-28T18:23:57;17.60;99.90
52889;DHT22;41413;52.770;6.892;2022-10-28T18:26:31;17.60;99.90
52889;DHT22;41413;52.770;6.892;2022-10-28T18:28:58;17.60;99.90
52889;DHT22;41413;52.770;6.892;2022-10-28T18:31:24;17.60;99.90